TimeMST,TemperatureF,Dew PointF,Humidity,Sea Level PressureIn,VisibilityMPH,Wind Direction,Wind SpeedMPH,Gust SpeedMPH,PrecipitationIn,Events,Conditions,WindDirDegrees,DateUTC
12:16 AM,33.8,14.0,44,30.20,10.0,West,15.0,-,N/A,,Clear,280,2013-03-01 07:16:00
12:33 AM,33.8,15.8,48,30.20,10.0,WNW,12.7,-,N/A,,Clear,290,2013-03-01 07:33:00
12:55 AM,33.8,14.0,44,30.21,10.0,WNW,4.6,-,N/A,,Clear,300,2013-03-01 07:55:00
1:16 AM,33.8,12.2,41,30.21,10.0,NW,10.4,-,N/A,,Clear,310,2013-03-01 08:16:00
1:36 AM,35.6,8.6,33,30.22,10.0,NW,8.1,-,N/A,,Clear,320,2013-03-01 08:36:00
2:36 AM,32.0,14.0,48,30.23,10.0,ENE,9.2,-,N/A,,Clear,70,2013-03-01 09:36:00
2:56 AM,30.2,15.8,55,30.23,10.0,ESE,4.6,-,N/A,,Clear,110,2013-03-01 09:56:00
3:14 AM,28.4,17.6,64,30.23,10.0,SE,3.5,-,N/A,,Clear,130,2013-03-01 10:14:00
3:33 AM,28.4,17.6,64,30.23,10.0,Calm,Calm,-,N/A,,Clear,0,2013-03-01 10:33:00
3:56 AM,28.4,17.6,64,30.24,10.0,South,3.5,-,N/A,,Clear,180,2013-03-01 10:56:00
4:16 AM,28.4,17.6,64,30.25,10.0,SSW,5.8,-,N/A,,Clear,200,2013-03-01 11:16:00
4:36 AM,28.4,17.6,64,30.26,10.0,South,4.6,-,N/A,,Clear,190,2013-03-01 11:36:00
4:56 AM,28.4,17.6,64,30.26,10.0,SSW,4.6,-,N/A,,Scattered Clouds,200,2013-03-01 11:56:00
5:49 AM,26.6,15.8,64,30.26,20.0,South,3.5,-,N/A,,Scattered Clouds,180,2013-03-01 12:49:00
6:55 AM,28.4,15.8,59,30.26,50.0,South,3.5,-,N/A,,Mostly Cloudy,170,2013-03-01 13:55:00
7:50 AM,30.2,15.8,55,30.27,50.0,SSE,5.8,-,N/A,,Mostly Cloudy,160,2013-03-01 14:50:00
8:12 AM,32.0,15.8,51,30.28,50.0,SSE,8.1,-,N/A,,Mostly Cloudy,160,2013-03-01 15:12:00
8:45 AM,33.8,15.8,48,30.28,50.0,SSE,5.8,-,N/A,,Mostly Cloudy,160,2013-03-01 15:45:00
10:46 AM,39.2,15.8,39,30.28,50.0,East,8.1,-,N/A,,Mostly Cloudy,100,2013-03-01 17:46:00
11:48 AM,39.2,15.8,39,30.29,40.0,East,6.9,-,N/A,,Mostly Cloudy,100,2013-03-01 18:48:00
1:50 PM,41.0,17.6,39,30.24,40.0,East,5.8,-,N/A,,Mostly Cloudy,90,2013-03-01 20:50:00
3:49 PM,44.6,17.6,34,30.24,40.0,Calm,Calm,-,N/A,,Mostly Cloudy,0,2013-03-01 22:49:00
4:46 PM,42.8,17.6,36,30.26,40.0,NE,5.8,-,N/A,,Mostly Cloudy,50,2013-03-01 23:46:00
5:49 PM,41.0,17.6,39,30.28,40.0,East,4.6,-,N/A,,Mostly Cloudy,80,2013-03-02 00:49:00
6:50 PM,41.0,15.8,36,30.29,20.0,ESE,3.5,-,N/A,,Mostly Cloudy,110,2013-03-02 01:50:00
7:50 PM,39.2,19.4,45,30.29,20.0,Variable,3.5,-,N/A,,Mostly Cloudy,0,2013-03-02 02:50:00
8:45 PM,41.0,19.4,42,30.29,15.0,Calm,Calm,-,N/A,,Mostly Cloudy,0,2013-03-02 03:45:00
10:15 PM,41.0,21.2,45,30.27,10.0,West,15.0,-,N/A,,Clear,280,2013-03-02 05:15:00
10:34 PM,41.0,23.0,49,30.27,10.0,West,11.5,-,N/A,,Clear,280,2013-03-02 05:34:00
10:56 PM,41.0,21.2,45,30.27,10.0,West,11.5,-,N/A,,Clear,280,2013-03-02 05:56:00
11:16 PM,41.0,21.2,45,30.27,10.0,West,11.5,-,N/A,,Clear,280,2013-03-02 06:16:00
11:35 PM,41.0,21.2,45,30.27,10.0,West,11.5,-,N/A,,Clear,280,2013-03-02 06:35:00
11:56 PM,41.0,21.2,45,30.27,10.0,West,12.7,-,N/A,,Clear,280,2013-03-02 06:56:00